sensor_id;sensor_type;location;lat;lon;timestamp;P1;durP1;ratioP1;P2;durP2;ratioP2
65552;SDS011;72126;51.560;14.368;2023-08-21T00:06:05;4.30;;;4.00;;
65552;SDS011;72126;51.560;14.368;2023-08-21T00:08:31;4.75;;;4.35;;
65552;SDS011;72126;51.560;14.368;2023-08-21T00:20:06;4.25;;;3.95;;
65552;SDS011;72126;51.560;14.368;2023-08-21T00:22:32;4.20;;;3.90;;
65552;SDS011;72126;51.560;14.368;2023-08-21T00:24:58;4.53;;;4.22;;
65552;SDS011;72126;51.560;14.368;2023-08-21T00:31:21;4.80;;;4.45;;
65552;SDS011;72126;51.560;14.368;2023-08-21T01:02:33;4.50;;;4.20;;
65552;SDS011;72126;51.560;14.368;2023-08-21T01:04:59;4.45;;;4.15;;
65552;SDS011;72126;51.560;14.368;2023-08-21T01:13:13;4.55;;;4.25;;
65552;SDS011;72126;51.560;14.368;2023-08-21T01:17:23;4.60;;;4.30;;
65552;SDS011;72126;51.560;14.368;2023-08-21T01:19:50;4.30;;;4.00;;
65552;SDS011;72126;51.560;14.368;2023-08-21T01:33:01;4.40;;;4.10;;
65552;SDS011;72126;51.560;14.368;2023-08-21T01:43:49;4.30;;;4.00;;
65552;SDS011;72126;51.560;14.368;2023-08-21T01:46:15;4.63;;;4.32;;
65552;SDS011;72126;51.560;14.368;2023-08-21T01:48:40;4.10;;;3.80;;
65552;SDS011;72126;51.560;14.368;2023-08-21T01:58:59;4.47;;;4.18;;
65552;SDS011;72126;51.560;14.368;2023-08-21T02:19:38;4.30;;;4.00;;
65552;SDS011;72126;51.560;14.368;2023-08-21T02:55:22;4.32;;;4.03;;
65552;SDS011;72126;51.560;14.368;2023-08-21T03:01:35;4.50;;;4.20;;
65552;SDS011;72126;51.560;14.368;2023-08-21T03:30:53;4.40;;;4.10;;
65552;SDS011;72126;51.560;14.368;2023-08-21T03:33:19;4.65;;;4.30;;
65552;SDS011;72126;51.560;14.368;2023-08-21T03:43:18;4.30;;;4.00;;
65552;SDS011;72126;51.560;14.368;2023-08-21T03:51:42;5.18;;;4.63;;
65552;SDS011;72126;51.560;14.368;2023-08-21T03:57:14;4.80;;;4.50;;
65552;SDS011;72126;51.560;14.368;2023-08-21T04:23:04;4.50;;;4.20;;
65552;SDS011;72126;51.560;14.368;2023-08-21T04:25:29;5.05;;;4.65;;
65552;SDS011;72126;51.560;14.368;2023-08-21T04:34:56;4.45;;;4.10;;
65552;SDS011;72126;51.560;14.368;2023-08-21T04:45:46;5.55;;;4.90;;
65552;SDS011;72126;51.560;14.368;2023-08-21T04:50:16;4.78;;;4.47;;
65552;SDS011;72126;51.560;14.368;2023-08-21T05:16:40;5.45;;;5.00;;
65552;SDS011;72126;51.560;14.368;2023-08-21T05:19:06;5.53;;;5.03;;
65552;SDS011;72126;51.560;14.368;2023-08-21T05:21:33;5.28;;;4.88;;
65552;SDS011;72126;51.560;14.368;2023-08-21T05:29:18;5.28;;;4.88;;
65552;SDS011;72126;51.560;14.368;2023-08-21T05:31:43;4.85;;;4.55;;
65552;SDS011;72126;51.560;14.368;2023-08-21T05:34:09;5.05;;;4.65;;
65552;SDS011;72126;51.560;14.368;2023-08-21T05:36:34;5.45;;;5.05;;
65552;SDS011;72126;51.560;14.368;2023-08-21T05:43:08;5.20;;;4.72;;
65552;SDS011;72126;51.560;14.368;2023-08-21T05:49:34;5.07;;;4.68;;
65552;SDS011;72126;51.560;14.368;2023-08-21T05:52:00;4.97;;;4.57;;
65552;SDS011;72126;51.560;14.368;2023-08-21T05:54:25;5.28;;;4.88;;
65552;SDS011;72126;51.560;14.368;2023-08-21T05:56:50;5.25;;;4.85;;
65552;SDS011;72126;51.560;14.368;2023-08-21T06:08:25;5.70;;;5.20;;
65552;SDS011;72126;51.560;14.368;2023-08-21T06:10:51;5.18;;;4.70;;
65552;SDS011;72126;51.560;14.368;2023-08-21T06:13:16;5.40;;;5.00;;
65552;SDS011;72126;51.560;14.368;2023-08-21T06:23:40;5.35;;;4.95;;
65552;SDS011;72126;51.560;14.368;2023-08-21T06:26:05;5.53;;;5.07;;
65552;SDS011;72126;51.560;14.368;2023-08-21T06:28:31;5.30;;;4.90;;
65552;SDS011;72126;51.560;14.368;2023-08-21T06:30:56;5.40;;;5.00;;
65552;SDS011;72126;51.560;14.368;2023-08-21T06:33:22;5.18;;;4.78;;
65552;SDS011;72126;51.560;14.368;2023-08-21T06:35:47;5.40;;;5.00;;
65552;SDS011;72126;51.560;14.368;2023-08-21T06:42:15;5.63;;;5.22;;
65552;SDS011;72126;51.560;14.368;2023-08-21T06:44:40;5.30;;;4.90;;
65552;SDS011;72126;51.560;14.368;2023-08-21T06:47:05;5.53;;;5.13;;
65552;SDS011;72126;51.560;14.368;2023-08-21T06:49:31;5.20;;;4.80;;
65552;SDS011;72126;51.560;14.368;2023-08-21T06:51:56;5.85;;;5.43;;
65552;SDS011;72126;51.560;14.368;2023-08-21T06:54:22;5.38;;;4.97;;
65552;SDS011;72126;51.560;14.368;2023-08-21T07:02:43;5.13;;;4.72;;
65552;SDS011;72126;51.560;14.368;2023-08-21T07:09:11;5.35;;;4.95;;
65552;SDS011;72126;51.560;14.368;2023-08-21T07:11:36;5.38;;;4.97;;
65552;SDS011;72126;51.560;14.368;2023-08-21T07:14:01;5.47;;;5.07;;
65552;SDS011;72126;51.560;14.368;2023-08-21T07:16:27;5.32;;;4.93;;
65552;SDS011;72126;51.560;14.368;2023-08-21T07:20:57;5.60;;;5.10;;
65552;SDS011;72126;51.560;14.368;2023-08-21T07:23:22;5.63;;;5.20;;
65552;SDS011;72126;51.560;14.368;2023-08-21T07:25:48;5.63;;;5.20;;
65552;SDS011;72126;51.560;14.368;2023-08-21T07:32:10;5.15;;;4.65;;
65552;SDS011;72126;51.560;14.368;2023-08-21T07:34:36;5.10;;;4.70;;
65552;SDS011;72126;51.560;14.368;2023-08-21T07:37:01;5.68;;;5.18;;
65552;SDS011;72126;51.560;14.368;2023-08-21T07:41:39;5.53;;;5.03;;
65552;SDS011;72126;51.560;14.368;2023-08-21T07:44:04;5.53;;;5.07;;
65552;SDS011;72126;51.560;14.368;2023-08-21T07:46:29;6.20;;;5.70;;
65552;SDS011;72126;51.560;14.368;2023-08-21T07:54:59;5.78;;;5.20;;
65552;SDS011;72126;51.560;14.368;2023-08-21T07:57:24;6.05;;;5.55;;
65552;SDS011;72126;51.560;14.368;2023-08-21T07:59:50;6.00;;;5.50;;
65552;SDS011;72126;51.560;14.368;2023-08-21T08:02:15;5.88;;;5.38;;
65552;SDS011;72126;51.560;14.368;2023-08-21T08:04:40;5.90;;;5.40;;
65552;SDS011;72126;51.560;14.368;2023-08-21T08:11:25;5.90;;;5.40;;
65552;SDS011;72126;51.560;14.368;2023-08-21T08:17:27;5.50;;;5.10;;
65552;SDS011;72126;51.560;14.368;2023-08-21T08:37:53;5.50;;;5.05;;
65552;SDS011;72126;51.560;14.368;2023-08-21T08:42:18;5.72;;;5.22;;
65552;SDS011;72126;51.560;14.368;2023-08-21T08:48:36;5.47;;;5.07;;
65552;SDS011;72126;51.560;14.368;2023-08-21T08:51:02;5.43;;;5.03;;
65552;SDS011;72126;51.560;14.368;2023-08-21T08:55:24;5.85;;;5.45;;
65552;SDS011;72126;51.560;14.368;2023-08-21T08:57:50;5.80;;;5.30;;
65552;SDS011;72126;51.560;14.368;2023-08-21T09:00:16;5.57;;;5.05;;
65552;SDS011;72126;51.560;14.368;2023-08-21T09:02:42;5.82;;;5.32;;
65552;SDS011;72126;51.560;14.368;2023-08-21T09:09:02;5.50;;;5.10;;
65552;SDS011;72126;51.560;14.368;2023-08-21T09:11:27;5.80;;;5.30;;
65552;SDS011;72126;51.560;14.368;2023-08-21T09:13:53;5.95;;;5.38;;
65552;SDS011;72126;51.560;14.368;2023-08-21T09:16:20;5.80;;;5.30;;
65552;SDS011;72126;51.560;14.368;2023-08-21T09:18:47;6.63;;;5.07;;
65552;SDS011;72126;51.560;14.368;2023-08-21T09:21:15;5.35;;;4.95;;
65552;SDS011;72126;51.560;14.368;2023-08-21T09:23:41;5.80;;;5.30;;
65552;SDS011;72126;51.560;14.368;2023-08-21T09:30:14;5.78;;;5.18;;
65552;SDS011;72126;51.560;14.368;2023-08-21T09:34:50;5.32;;;4.93;;
65552;SDS011;72126;51.560;14.368;2023-08-21T09:37:16;5.60;;;5.20;;
65552;SDS011;72126;51.560;14.368;2023-08-21T09:39:41;5.97;;;5.47;;
65552;SDS011;72126;51.560;14.368;2023-08-21T09:42:07;5.45;;;5.05;;
65552;SDS011;72126;51.560;14.368;2023-08-21T09:44:37;5.85;;;5.35;;
65552;SDS011;72126;51.560;14.368;2023-08-21T09:54:50;5.50;;;5.00;;
65552;SDS011;72126;51.560;14.368;2023-08-21T10:15:08;5.57;;;5.18;;
65552;SDS011;72126;51.560;14.368;2023-08-21T10:17:34;5.80;;;5.20;;
65552;SDS011;72126;51.560;14.368;2023-08-21T10:20:02;6.07;;;5.57;;
65552;SDS011;72126;51.560;14.368;2023-08-21T10:22:38;5.50;;;5.10;;
65552;SDS011;72126;51.560;14.368;2023-08-21T10:25:20;5.93;;;5.43;;
65552;SDS011;72126;51.560;14.368;2023-08-21T10:27:46;5.82;;;5.32;;
65552;SDS011;72126;51.560;14.368;2023-08-21T10:30:15;5.85;;;5.35;;
65552;SDS011;72126;51.560;14.368;2023-08-21T10:32:48;5.63;;;5.22;;
65552;SDS011;72126;51.560;14.368;2023-08-21T10:35:35;5.57;;;5.18;;
65552;SDS011;72126;51.560;14.368;2023-08-21T10:41:30;5.13;;;4.72;;
65552;SDS011;72126;51.560;14.368;2023-08-21T10:43:55;6.78;;;6.13;;
65552;SDS011;72126;51.560;14.368;2023-08-21T10:46:21;6.22;;;5.68;;
65552;SDS011;72126;51.560;14.368;2023-08-21T10:52:55;5.50;;;5.00;;
65552;SDS011;72126;51.560;14.368;2023-08-21T10:55:20;6.22;;;5.72;;
65552;SDS011;72126;51.560;14.368;2023-08-21T10:57:46;6.18;;;5.57;;
65552;SDS011;72126;51.560;14.368;2023-08-21T11:00:13;6.35;;;5.75;;
65552;SDS011;72126;51.560;14.368;2023-08-21T11:02:40;6.15;;;5.53;;
65552;SDS011;72126;51.560;14.368;2023-08-21T11:05:07;6.35;;;5.80;;
65552;SDS011;72126;51.560;14.368;2023-08-21T11:07:36;6.15;;;5.53;;
65552;SDS011;72126;51.560;14.368;2023-08-21T11:10:03;5.78;;;5.28;;
65552;SDS011;72126;51.560;14.368;2023-08-21T11:12:29;6.35;;;5.43;;
65552;SDS011;72126;51.560;14.368;2023-08-21T11:14:54;5.78;;;5.25;;
65552;SDS011;72126;51.560;14.368;2023-08-21T11:17:20;5.70;;;5.13;;
65552;SDS011;72126;51.560;14.368;2023-08-21T11:19:45;5.60;;;5.10;;
65552;SDS011;72126;51.560;14.368;2023-08-21T11:22:11;6.30;;;5.40;;
65552;SDS011;72126;51.560;14.368;2023-08-21T11:24:40;5.45;;;4.95;;
65552;SDS011;72126;51.560;14.368;2023-08-21T11:27:14;6.03;;;5.47;;
65552;SDS011;72126;51.560;14.368;2023-08-21T11:29:42;6.32;;;5.50;;
65552;SDS011;72126;51.560;14.368;2023-08-21T11:32:12;5.85;;;5.35;;
65552;SDS011;72126;51.560;14.368;2023-08-21T11:34:38;5.80;;;5.30;;
65552;SDS011;72126;51.560;14.368;2023-08-21T11:37:04;5.28;;;4.82;;
65552;SDS011;72126;51.560;14.368;2023-08-21T11:39:38;5.53;;;5.03;;
65552;SDS011;72126;51.560;14.368;2023-08-21T11:44:32;5.43;;;5.03;;
65552;SDS011;72126;51.560;14.368;2023-08-21T11:46:58;5.88;;;4.70;;
65552;SDS011;72126;51.560;14.368;2023-08-21T11:49:23;5.60;;;5.10;;
65552;SDS011;72126;51.560;14.368;2023-08-21T11:51:48;5.90;;;5.40;;
65552;SDS011;72126;51.560;14.368;2023-08-21T11:54:14;5.57;;;5.10;;
65552;SDS011;72126;51.560;14.368;2023-08-21T11:56:42;6.00;;;5.40;;
65552;SDS011;72126;51.560;14.368;2023-08-21T11:59:07;5.30;;;4.80;;
65552;SDS011;72126;51.560;14.368;2023-08-21T12:01:33;5.70;;;5.20;;
65552;SDS011;72126;51.560;14.368;2023-08-21T12:03:59;5.85;;;5.35;;
65552;SDS011;72126;51.560;14.368;2023-08-21T12:06:24;5.70;;;5.20;;
65552;SDS011;72126;51.560;14.368;2023-08-21T12:08:50;6.20;;;5.60;;
65552;SDS011;72126;51.560;14.368;2023-08-21T12:11:16;5.32;;;4.93;;
65552;SDS011;72126;51.560;14.368;2023-08-21T12:13:41;5.93;;;5.43;;
65552;SDS011;72126;51.560;14.368;2023-08-21T12:16:07;5.82;;;5.38;;
65552;SDS011;72126;51.560;14.368;2023-08-21T12:18:33;6.13;;;5.53;;
65552;SDS011;72126;51.560;14.368;2023-08-21T12:20:59;5.78;;;5.28;;
65552;SDS011;72126;51.560;14.368;2023-08-21T12:23:24;6.05;;;5.10;;
65552;SDS011;72126;51.560;14.368;2023-08-21T12:25:49;5.40;;;4.90;;
65552;SDS011;72126;51.560;14.368;2023-08-21T12:28:15;5.22;;;4.82;;
65552;SDS011;72126;51.560;14.368;2023-08-21T12:30:40;6.00;;;5.13;;
65552;SDS011;72126;51.560;14.368;2023-08-21T12:33:06;5.50;;;5.00;;
65552;SDS011;72126;51.560;14.368;2023-08-21T12:35:34;5.68;;;5.18;;
65552;SDS011;72126;51.560;14.368;2023-08-21T12:37:59;5.65;;;5.25;;
65552;SDS011;72126;51.560;14.368;2023-08-21T12:40:25;5.78;;;5.13;;
65552;SDS011;72126;51.560;14.368;2023-08-21T12:43:04;6.07;;;5.57;;
65552;SDS011;72126;51.560;14.368;2023-08-21T12:45:30;5.97;;;5.47;;
65552;SDS011;72126;51.560;14.368;2023-08-21T12:47:55;6.07;;;5.57;;
65552;SDS011;72126;51.560;14.368;2023-08-21T12:50:21;5.65;;;5.15;;
65552;SDS011;72126;51.560;14.368;2023-08-21T12:52:49;5.25;;;4.85;;
65552;SDS011;72126;51.560;14.368;2023-08-21T12:55:14;5.82;;;5.22;;
65552;SDS011;72126;51.560;14.368;2023-08-21T12:57:39;5.90;;;5.30;;
65552;SDS011;72126;51.560;14.368;2023-08-21T13:00:07;5.72;;;5.22;;
65552;SDS011;72126;51.560;14.368;2023-08-21T13:02:33;5.88;;;5.38;;
65552;SDS011;72126;51.560;14.368;2023-08-21T13:04:58;6.00;;;5.50;;
65552;SDS011;72126;51.560;14.368;2023-08-21T13:07:23;5.82;;;5.40;;
65552;SDS011;72126;51.560;14.368;2023-08-21T13:09:49;6.07;;;5.47;;
65552;SDS011;72126;51.560;14.368;2023-08-21T13:12:14;6.90;;;5.68;;
65552;SDS011;72126;51.560;14.368;2023-08-21T13:14:39;6.30;;;5.70;;
65552;SDS011;72126;51.560;14.368;2023-08-21T13:17:06;5.78;;;5.28;;
65552;SDS011;72126;51.560;14.368;2023-08-21T13:19:31;5.75;;;5.25;;
65552;SDS011;72126;51.560;14.368;2023-08-21T13:21:57;6.30;;;5.80;;
65552;SDS011;72126;51.560;14.368;2023-08-21T13:24:22;6.15;;;5.55;;
65552;SDS011;72126;51.560;14.368;2023-08-21T13:26:47;6.15;;;5.65;;
65552;SDS011;72126;51.560;14.368;2023-08-21T13:29:13;6.00;;;5.50;;
65552;SDS011;72126;51.560;14.368;2023-08-21T13:31:38;6.00;;;5.50;;
65552;SDS011;72126;51.560;14.368;2023-08-21T13:34:04;6.43;;;5.82;;
65552;SDS011;72126;51.560;14.368;2023-08-21T13:36:30;6.50;;;5.85;;
65552;SDS011;72126;51.560;14.368;2023-08-21T13:38:55;6.13;;;5.57;;
65552;SDS011;72126;51.560;14.368;2023-08-21T13:41:21;6.05;;;5.30;;
65552;SDS011;72126;51.560;14.368;2023-08-21T13:43:46;6.63;;;5.32;;
65552;SDS011;72126;51.560;14.368;2023-08-21T13:46:12;5.95;;;5.45;;
65552;SDS011;72126;51.560;14.368;2023-08-21T13:48:37;6.13;;;5.55;;
65552;SDS011;72126;51.560;14.368;2023-08-21T13:51:03;6.45;;;5.60;;
65552;SDS011;72126;51.560;14.368;2023-08-21T13:53:28;6.38;;;5.88;;
65552;SDS011;72126;51.560;14.368;2023-08-21T13:55:54;6.00;;;5.50;;
65552;SDS011;72126;51.560;14.368;2023-08-21T13:58:20;6.32;;;5.82;;
65552;SDS011;72126;51.560;14.368;2023-08-21T14:00:45;6.00;;;5.50;;
65552;SDS011;72126;51.560;14.368;2023-08-21T14:03:11;5.93;;;5.45;;
65552;SDS011;72126;51.560;14.368;2023-08-21T14:05:36;5.97;;;5.38;;
65552;SDS011;72126;51.560;14.368;2023-08-21T14:08:02;6.00;;;5.47;;
65552;SDS011;72126;51.560;14.368;2023-08-21T14:10:28;6.10;;;5.50;;
65552;SDS011;72126;51.560;14.368;2023-08-21T14:12:54;6.72;;;6.13;;
65552;SDS011;72126;51.560;14.368;2023-08-21T14:15:19;5.80;;;5.30;;
65552;SDS011;72126;51.560;14.368;2023-08-21T14:17:45;5.85;;;5.35;;
65552;SDS011;72126;51.560;14.368;2023-08-21T14:20:10;6.00;;;5.40;;
65552;SDS011;72126;51.560;14.368;2023-08-21T14:22:36;6.20;;;5.70;;
65552;SDS011;72126;51.560;14.368;2023-08-21T14:25:02;6.05;;;5.47;;
65552;SDS011;72126;51.560;14.368;2023-08-21T14:27:28;5.85;;;5.35;;
65552;SDS011;72126;51.560;14.368;2023-08-21T14:29:53;5.82;;;5.35;;
65552;SDS011;72126;51.560;14.368;2023-08-21T14:34:26;5.93;;;5.43;;
65552;SDS011;72126;51.560;14.368;2023-08-21T14:36:52;5.53;;;5.03;;
65552;SDS011;72126;51.560;14.368;2023-08-21T14:39:17;6.03;;;5.53;;
65552;SDS011;72126;51.560;14.368;2023-08-21T14:41:42;6.15;;;5.65;;
65552;SDS011;72126;51.560;14.368;2023-08-21T14:44:08;5.88;;;5.38;;
65552;SDS011;72126;51.560;14.368;2023-08-21T14:46:34;6.13;;;5.63;;
65552;SDS011;72126;51.560;14.368;2023-08-21T14:49:00;6.20;;;5.70;;
65552;SDS011;72126;51.560;14.368;2023-08-21T14:51:26;5.63;;;5.13;;
65552;SDS011;72126;51.560;14.368;2023-08-21T14:54:44;6.20;;;5.70;;
65552;SDS011;72126;51.560;14.368;2023-08-21T14:57:09;5.65;;;5.15;;
65552;SDS011;72126;51.560;14.368;2023-08-21T14:59:34;6.28;;;5.78;;
65552;SDS011;72126;51.560;14.368;2023-08-21T15:02:00;5.65;;;5.15;;
65552;SDS011;72126;51.560;14.368;2023-08-21T15:04:27;5.95;;;5.45;;
65552;SDS011;72126;51.560;14.368;2023-08-21T15:06:53;6.03;;;5.55;;
65552;SDS011;72126;51.560;14.368;2023-08-21T15:09:18;5.80;;;5.30;;
65552;SDS011;72126;51.560;14.368;2023-08-21T15:11:44;5.32;;;4.93;;
65552;SDS011;72126;51.560;14.368;2023-08-21T15:14:10;5.82;;;5.32;;
65552;SDS011;72126;51.560;14.368;2023-08-21T15:16:36;6.15;;;5.55;;
65552;SDS011;72126;51.560;14.368;2023-08-21T15:19:01;5.95;;;5.38;;
65552;SDS011;72126;51.560;14.368;2023-08-21T15:21:27;6.05;;;5.55;;
65552;SDS011;72126;51.560;14.368;2023-08-21T15:23:52;5.60;;;5.10;;
65552;SDS011;72126;51.560;14.368;2023-08-21T15:26:18;5.93;;;5.43;;
65552;SDS011;72126;51.560;14.368;2023-08-21T15:28:53;5.70;;;5.20;;
65552;SDS011;72126;51.560;14.368;2023-08-21T15:31:19;5.90;;;5.40;;
65552;SDS011;72126;51.560;14.368;2023-08-21T15:33:45;5.63;;;5.13;;
65552;SDS011;72126;51.560;14.368;2023-08-21T15:36:10;6.03;;;5.50;;
65552;SDS011;72126;51.560;14.368;2023-08-21T15:38:35;5.70;;;5.20;;
65552;SDS011;72126;51.560;14.368;2023-08-21T15:41:01;5.82;;;5.35;;
65552;SDS011;72126;51.560;14.368;2023-08-21T15:43:26;5.35;;;4.90;;
65552;SDS011;72126;51.560;14.368;2023-08-21T15:45:52;5.63;;;5.13;;
65552;SDS011;72126;51.560;14.368;2023-08-21T15:48:18;5.75;;;5.28;;
65552;SDS011;72126;51.560;14.368;2023-08-21T15:51:31;6.38;;;5.43;;
65552;SDS011;72126;51.560;14.368;2023-08-21T15:53:56;5.47;;;5.07;;
65552;SDS011;72126;51.560;14.368;2023-08-21T15:56:22;6.15;;;5.65;;
65552;SDS011;72126;51.560;14.368;2023-08-21T15:58:47;5.72;;;5.22;;
65552;SDS011;72126;51.560;14.368;2023-08-21T16:01:12;5.93;;;5.43;;
65552;SDS011;72126;51.560;14.368;2023-08-21T16:05:48;5.50;;;5.10;;
65552;SDS011;72126;51.560;14.368;2023-08-21T16:08:16;5.90;;;5.40;;
65552;SDS011;72126;51.560;14.368;2023-08-21T16:12:35;5.80;;;5.30;;
65552;SDS011;72126;51.560;14.368;2023-08-21T16:15:01;5.90;;;5.30;;
65552;SDS011;72126;51.560;14.368;2023-08-21T16:17:27;5.88;;;5.47;;
65552;SDS011;72126;51.560;14.368;2023-08-21T16:21:59;5.68;;;5.28;;
65552;SDS011;72126;51.560;14.368;2023-08-21T16:24:25;5.75;;;5.30;;
65552;SDS011;72126;51.560;14.368;2023-08-21T16:26:50;6.13;;;5.55;;
65552;SDS011;72126;51.560;14.368;2023-08-21T16:29:17;5.75;;;5.35;;
65552;SDS011;72126;51.560;14.368;2023-08-21T16:31:42;5.70;;;5.20;;
65552;SDS011;72126;51.560;14.368;2023-08-21T16:36:12;5.70;;;5.15;;
65552;SDS011;72126;51.560;14.368;2023-08-21T16:42:40;5.35;;;4.95;;
65552;SDS011;72126;51.560;14.368;2023-08-21T16:45:06;5.90;;;5.40;;
65552;SDS011;72126;51.560;14.368;2023-08-21T16:49:41;5.50;;;5.00;;
65552;SDS011;72126;51.560;14.368;2023-08-21T16:52:07;5.43;;;5.03;;
65552;SDS011;72126;51.560;14.368;2023-08-21T16:54:32;6.05;;;5.50;;
65552;SDS011;72126;51.560;14.368;2023-08-21T16:56:57;5.70;;;5.20;;
65552;SDS011;72126;51.560;14.368;2023-08-21T16:59:23;5.57;;;5.18;;
65552;SDS011;72126;51.560;14.368;2023-08-21T17:01:48;5.38;;;4.97;;
65552;SDS011;72126;51.560;14.368;2023-08-21T17:08:06;5.57;;;5.07;;
65552;SDS011;72126;51.560;14.368;2023-08-21T17:10:32;5.45;;;5.05;;
65552;SDS011;72126;51.560;14.368;2023-08-21T17:15:00;5.13;;;4.82;;
65552;SDS011;72126;51.560;14.368;2023-08-21T17:17:25;5.28;;;4.88;;
65552;SDS011;72126;51.560;14.368;2023-08-21T17:19:51;5.43;;;4.93;;
65552;SDS011;72126;51.560;14.368;2023-08-21T17:22:16;5.10;;;4.70;;
65552;SDS011;72126;51.560;14.368;2023-08-21T17:24:45;4.97;;;4.57;;
65552;SDS011;72126;51.560;14.368;2023-08-21T17:27:12;5.13;;;4.72;;
65552;SDS011;72126;51.560;14.368;2023-08-21T17:29:37;5.10;;;4.70;;
65552;SDS011;72126;51.560;14.368;2023-08-21T17:32:10;5.57;;;5.18;;
65552;SDS011;72126;51.560;14.368;2023-08-21T17:34:35;5.13;;;4.72;;
65552;SDS011;72126;51.560;14.368;2023-08-21T17:37:01;5.38;;;4.97;;
65552;SDS011;72126;51.560;14.368;2023-08-21T17:39:26;5.43;;;5.00;;
65552;SDS011;72126;51.560;14.368;2023-08-21T17:43:46;5.40;;;4.93;;
65552;SDS011;72126;51.560;14.368;2023-08-21T17:46:12;6.93;;;4.95;;
65552;SDS011;72126;51.560;14.368;2023-08-21T17:48:37;5.63;;;5.10;;
65552;SDS011;72126;51.560;14.368;2023-08-21T17:51:02;4.75;;;4.45;;
65552;SDS011;72126;51.560;14.368;2023-08-21T17:53:28;5.43;;;5.03;;
65552;SDS011;72126;51.560;14.368;2023-08-21T17:55:53;5.00;;;4.60;;
65552;SDS011;72126;51.560;14.368;2023-08-21T17:58:19;5.10;;;4.70;;
65552;SDS011;72126;51.560;14.368;2023-08-21T18:00:45;5.03;;;4.43;;
65552;SDS011;72126;51.560;14.368;2023-08-21T18:03:10;4.90;;;4.47;;
65552;SDS011;72126;51.560;14.368;2023-08-21T18:05:35;5.30;;;4.90;;
65552;SDS011;72126;51.560;14.368;2023-08-21T18:08:01;5.35;;;4.88;;
65552;SDS011;72126;51.560;14.368;2023-08-21T18:10:26;4.78;;;4.38;;
65552;SDS011;72126;51.560;14.368;2023-08-21T18:12:52;5.35;;;4.90;;
65552;SDS011;72126;51.560;14.368;2023-08-21T18:15:17;4.90;;;4.50;;
65552;SDS011;72126;51.560;14.368;2023-08-21T18:17:44;4.82;;;4.43;;
65552;SDS011;72126;51.560;14.368;2023-08-21T18:20:09;6.18;;;4.90;;
65552;SDS011;72126;51.560;14.368;2023-08-21T18:22:35;5.18;;;4.68;;
65552;SDS011;72126;51.560;14.368;2023-08-21T18:25:01;5.15;;;4.45;;
65552;SDS011;72126;51.560;14.368;2023-08-21T18:30:46;4.65;;;4.28;;
65552;SDS011;72126;51.560;14.368;2023-08-21T18:33:12;5.00;;;4.60;;
65552;SDS011;72126;51.560;14.368;2023-08-21T18:35:37;4.60;;;4.20;;
65552;SDS011;72126;51.560;14.368;2023-08-21T18:40:12;5.30;;;4.75;;
65552;SDS011;72126;51.560;14.368;2023-08-21T18:42:37;5.68;;;4.63;;
65552;SDS011;72126;51.560;14.368;2023-08-21T18:53:15;4.90;;;4.47;;
65552;SDS011;72126;51.560;14.368;2023-08-21T19:02:13;5.75;;;5.15;;
65552;SDS011;72126;51.560;14.368;2023-08-21T19:04:39;5.05;;;4.40;;
65552;SDS011;72126;51.560;14.368;2023-08-21T19:11:40;4.70;;;4.30;;
65552;SDS011;72126;51.560;14.368;2023-08-21T19:16:15;4.63;;;4.22;;
65552;SDS011;72126;51.560;14.368;2023-08-21T19:18:41;4.95;;;4.53;;
65552;SDS011;72126;51.560;14.368;2023-08-21T19:21:06;4.90;;;4.50;;
65552;SDS011;72126;51.560;14.368;2023-08-21T19:23:31;5.30;;;4.80;;
65552;SDS011;72126;51.560;14.368;2023-08-21T19:25:57;4.80;;;4.40;;
65552;SDS011;72126;51.560;14.368;2023-08-21T19:28:22;4.70;;;4.40;;
65552;SDS011;72126;51.560;14.368;2023-08-21T19:36:17;4.72;;;4.32;;
65552;SDS011;72126;51.560;14.368;2023-08-21T19:50:06;5.00;;;4.60;;
65552;SDS011;72126;51.560;14.368;2023-08-21T19:52:32;5.55;;;5.05;;
65552;SDS011;72126;51.560;14.368;2023-08-21T19:54:57;4.97;;;4.65;;
65552;SDS011;72126;51.560;14.368;2023-08-21T19:57:23;5.22;;;4.82;;
65552;SDS011;72126;51.560;14.368;2023-08-21T20:03:48;4.97;;;4.50;;
65552;SDS011;72126;51.560;14.368;2023-08-21T20:08:05;5.30;;;4.85;;
65552;SDS011;72126;51.560;14.368;2023-08-21T20:10:30;5.20;;;4.80;;
65552;SDS011;72126;51.560;14.368;2023-08-21T20:12:56;5.28;;;4.88;;
65552;SDS011;72126;51.560;14.368;2023-08-21T20:15:21;5.07;;;4.68;;
65552;SDS011;72126;51.560;14.368;2023-08-21T20:22:09;5.07;;;4.63;;
65552;SDS011;72126;51.560;14.368;2023-08-21T20:24:35;4.70;;;4.40;;
65552;SDS011;72126;51.560;14.368;2023-08-21T20:32:42;5.00;;;4.60;;
65552;SDS011;72126;51.560;14.368;2023-08-21T20:35:07;5.03;;;4.45;;
65552;SDS011;72126;51.560;14.368;2023-08-21T20:37:33;5.55;;;5.00;;
65552;SDS011;72126;51.560;14.368;2023-08-21T20:39:58;4.82;;;4.47;;
65552;SDS011;72126;51.560;14.368;2023-08-21T20:42:24;5.40;;;4.72;;
65552;SDS011;72126;51.560;14.368;2023-08-21T20:44:49;4.95;;;4.47;;
65552;SDS011;72126;51.560;14.368;2023-08-21T20:47:14;4.97;;;4.57;;
65552;SDS011;72126;51.560;14.368;2023-08-21T20:51:50;4.82;;;4.43;;
65552;SDS011;72126;51.560;14.368;2023-08-21T20:54:15;4.82;;;4.30;;
65552;SDS011;72126;51.560;14.368;2023-08-21T20:56:41;4.95;;;4.57;;
65552;SDS011;72126;51.560;14.368;2023-08-21T20:59:06;5.40;;;4.90;;
65552;SDS011;72126;51.560;14.368;2023-08-21T21:03:39;5.22;;;4.72;;
65552;SDS011;72126;51.560;14.368;2023-08-21T21:09:48;4.78;;;4.38;;
65552;SDS011;72126;51.560;14.368;2023-08-21T21:14:09;4.95;;;4.50;;
65552;SDS011;72126;51.560;14.368;2023-08-21T21:22:39;4.90;;;4.50;;
65552;SDS011;72126;51.560;14.368;2023-08-21T21:25:04;5.05;;;4.65;;
65552;SDS011;72126;51.560;14.368;2023-08-21T21:27:31;4.72;;;4.43;;
65552;SDS011;72126;51.560;14.368;2023-08-21T21:29:56;4.95;;;4.55;;
65552;SDS011;72126;51.560;14.368;2023-08-21T21:32:22;4.78;;;4.30;;
65552;SDS011;72126;51.560;14.368;2023-08-21T21:34:48;5.03;;;4.65;;
65552;SDS011;72126;51.560;14.368;2023-08-21T21:37:14;4.82;;;4.40;;
65552;SDS011;72126;51.560;14.368;2023-08-21T21:39:40;4.90;;;4.50;;
65552;SDS011;72126;51.560;14.368;2023-08-21T21:42:06;5.05;;;4.63;;
65552;SDS011;72126;51.560;14.368;2023-08-21T21:44:31;4.65;;;4.32;;
65552;SDS011;72126;51.560;14.368;2023-08-21T21:46:57;4.70;;;4.40;;
65552;SDS011;72126;51.560;14.368;2023-08-21T21:51:18;4.78;;;4.47;;
65552;SDS011;72126;51.560;14.368;2023-08-21T21:53:43;5.00;;;4.60;;
65552;SDS011;72126;51.560;14.368;2023-08-21T21:57:54;5.05;;;4.65;;
65552;SDS011;72126;51.560;14.368;2023-08-21T22:00:20;4.90;;;4.50;;
65552;SDS011;72126;51.560;14.368;2023-08-21T22:02:45;4.90;;;4.50;;
65552;SDS011;72126;51.560;14.368;2023-08-21T22:17:21;4.70;;;4.40;;
65552;SDS011;72126;51.560;14.368;2023-08-21T22:21:27;4.65;;;4.30;;
65552;SDS011;72126;51.560;14.368;2023-08-21T22:23:52;4.93;;;4.53;;
65552;SDS011;72126;51.560;14.368;2023-08-21T22:26:21;4.25;;;3.95;;
65552;SDS011;72126;51.560;14.368;2023-08-21T22:28:46;4.60;;;4.28;;
65552;SDS011;72126;51.560;14.368;2023-08-21T22:31:12;4.85;;;4.45;;
65552;SDS011;72126;51.560;14.368;2023-08-21T22:33:37;4.57;;;4.20;;
65552;SDS011;72126;51.560;14.368;2023-08-21T22:36:02;4.72;;;4.43;;
65552;SDS011;72126;51.560;14.368;2023-08-21T22:51:52;4.10;;;3.80;;
65552;SDS011;72126;51.560;14.368;2023-08-21T23:03:37;4.50;;;4.20;;
65552;SDS011;72126;51.560;14.368;2023-08-21T23:20:27;4.53;;;4.13;;
65552;SDS011;72126;51.560;14.368;2023-08-21T23:33:15;4.45;;;4.15;;
65552;SDS011;72126;51.560;14.368;2023-08-21T23:35:40;4.30;;;4.00;;